Time;durP1;ratioP1;P1;durP2;ratioP2;P2;SDS_P1;SDS_P2;PMS_P1;PMS_P2;Temp;Humidity;BMP_temperature;BMP_pressure;BME280_temperature;BME280_humidity;BME280_pressure;Samples;Min_cycle;Max_cycle;Signal;HPM_P1;HPM_P2
2022/05/08 00:01:58;;;;;;;7.00;4.07;;;;;;;12.71;68.05;102519.09;5067197;28;20040;-78
2022/05/08 00:04:23;;;;;;;8.52;4.35;;;;;;;12.70;67.87;102514.75;5058075;28;20436;-78
2022/05/08 00:06:48;;;;;;;8.48;4.30;;;;;;;12.68;68.19;102510.38;5066466;28;20032;-78
2022/05/08 00:09:14;;;;;;;8.10;4.32;;;;;;;12.70;68.37;102517.34;5061365;28;20501;-78
2022/05/08 00:11:40;;;;;;;7.35;4.35;;;;;;;12.70;68.43;102521.69;5070204;28;20023;-78
2022/05/08 00:14:05;;;;;;;9.25;4.40;;;;;;;12.70;68.16;102522.56;5070665;28;20652;-78
2022/05/08 00:16:30;;;;;;;9.20;4.40;;;;;;;12.69;68.14;102522.56;5065470;28;20016;-78
2022/05/08 00:18:56;;;;;;;7.28;4.55;;;;;;;12.68;68.63;102526.06;5065912;28;20383;-78
2022/05/08 00:21:21;;;;;;;7.90;4.70;;;;;;;12.66;68.02;102520.84;5068122;28;20024;-78
2022/05/08 00:23:46;;;;;;;6.68;4.55;;;;;;;12.66;68.49;102519.97;5065009;28;20494;-78
2022/05/08 00:26:13;;;;;;;7.70;4.55;;;;;;;12.65;68.42;102516.50;5066458;28;20028;-79
2022/05/08 00:28:38;;;;;;;7.82;4.47;;;;;;;12.68;67.76;102518.22;5064943;28;20025;-78
2022/05/08 00:31:07;;;;;;;9.52;5.10;;;;;;;12.68;68.15;102523.44;5065006;28;20482;-78
2022/05/08 00:33:32;;;;;;;8.70;4.70;;;;;;;12.66;67.85;102517.34;5067838;28;20020;-79
2022/05/08 00:35:58;;;;;;;11.13;4.78;;;;;;;12.60;67.89;102516.56;5065781;28;20086;-78
2022/05/08 00:38:23;;;;;;;7.05;4.85;;;;;;;12.60;67.93;102511.31;5066759;28;20094;-78
2022/05/08 00:40:48;;;;;;;7.55;4.80;;;;;;;12.59;68.02;102514.81;5069484;28;20390;-79
2022/05/08 00:43:25;;;;;;;7.53;5.00;;;;;;;12.56;67.58;102514.81;5067747;28;20033;-78
2022/05/08 00:45:50;;;;;;;10.25;5.28;;;;;;;12.55;68.56;102517.47;5066167;28;20024;-78
2022/05/08 00:48:16;;;;;;;10.02;5.20;;;;;;;12.54;68.36;102510.50;5067290;28;20020;-78
2022/05/08 00:50:41;;;;;;;7.85;5.20;;;;;;;12.50;68.43;102517.47;5065569;28;20021;-78
2022/05/08 00:53:06;;;;;;;8.02;5.00;;;;;;;12.47;68.63;102522.72;5067606;28;20040;-78
2022/05/08 00:55:32;;;;;;;7.93;5.03;;;;;;;12.43;68.28;102514.03;5067149;28;20032;-78
2022/05/08 00:58:00;;;;;;;11.20;5.57;;;;;;;12.39;68.50;102519.28;5069692;28;20020;-78
2022/05/08 01:00:25;;;;;;;7.80;5.18;;;;;;;12.36;68.78;102524.53;5069711;28;20024;-78
2022/05/08 01:02:50;;;;;;;10.75;5.70;;;;;;;12.32;68.63;102522.81;5067593;28;20017;-78
2022/05/08 01:05:16;;;;;;;9.50;5.70;;;;;;;12.28;68.61;102525.47;5065935;28;20383;-78
2022/05/08 01:07:41;;;;;;;9.30;5.40;;;;;;;12.23;68.32;102522.00;5069949;28;20024;-79
2022/05/08 01:10:07;;;;;;;10.32;5.75;;;;;;;12.19;68.42;102525.50;5064818;28;20472;-79
2022/05/08 01:12:32;;;;;;;8.60;5.63;;;;;;;12.19;68.39;102530.72;5064849;28;20032;-79
2022/05/08 01:15:11;;;;;;;11.00;5.78;;;;;;;12.18;68.02;102535.94;5066643;28;20423;-78
2022/05/08 01:17:36;;;;;;;11.10;5.35;;;;;;;12.13;68.80;102525.50;5065824;28;20093;-79
2022/05/08 01:20:02;;;;;;;11.40;5.78;;;;;;;12.11;68.67;102538.59;5065105;28;20028;-78
2022/05/08 01:22:28;;;;;;;9.48;5.28;;;;;;;12.10;68.89;102539.44;5066161;28;20020;-79
2022/05/08 01:24:53;;;;;;;12.35;6.13;;;;;;;12.08;68.59;102533.38;5063593;28;20468;-78
2022/05/08 01:27:19;;;;;;;10.27;6.22;;;;;;;12.06;68.71;102539.47;5070438;28;20395;-78
2022/05/08 01:29:44;;;;;;;11.18;6.25;;;;;;;12.03;68.82;102535.16;5068614;28;20046;-78
2022/05/08 01:32:10;;;;;;;8.70;5.45;;;;;;;12.03;69.13;102534.28;5071389;28;20028;-78
2022/05/08 01:34:35;;;;;;;11.73;6.35;;;;;;;12.02;69.22;102533.41;5068485;28;20028;-78
2022/05/08 01:37:00;;;;;;;9.50;5.53;;;;;;;12.02;69.07;102536.03;5070697;28;20024;-78
2022/05/08 01:39:25;;;;;;;8.63;5.65;;;;;;;12.01;68.42;102536.91;5069151;28;20052;-78
2022/05/08 01:41:51;;;;;;;14.63;5.60;;;;;;;11.99;68.75;102543.88;5064869;28;20025;-78
2022/05/08 01:44:16;;;;;;;8.63;5.75;;;;;;;11.96;68.93;102541.22;5069186;28;20028;-78
2022/05/08 01:46:41;;;;;;;11.15;6.18;;;;;;;11.90;68.66;102539.53;5073230;28;20036;-78
2022/05/08 01:49:06;;;;;;;8.85;5.47;;;;;;;11.88;68.91;102546.47;5068036;28;20074;-78
2022/05/08 01:51:32;;;;;;;10.35;5.68;;;;;;;11.87;68.60;102549.09;5066120;28;20040;-78
2022/05/08 01:53:57;;;;;;;10.07;5.70;;;;;;;11.80;68.03;102543.00;5069711;28;20032;-78
2022/05/08 01:56:22;;;;;;;8.38;5.35;;;;;;;11.75;68.07;102544.78;5070894;28;20028;-78
2022/05/08 01:58:48;;;;;;;10.13;5.63;;;;;;;11.71;68.22;102548.28;5068626;28;20111;-78
2022/05/08 02:01:14;;;;;;;11.00;5.78;;;;;;;11.66;68.33;102551.75;5068851;28;20078;-78
2022/05/08 02:03:40;;;;;;;9.52;5.32;;;;;;;11.65;68.47;102554.38;5072122;28;20045;-78
2022/05/08 02:06:05;;;;;;;12.25;5.78;;;;;;;11.61;68.28;102553.53;5068996;28;20488;-78
2022/05/08 02:08:30;;;;;;;10.85;5.80;;;;;;;11.59;68.20;102554.38;5067888;28;20099;-78
2022/05/08 02:10:56;;;;;;;11.68;5.57;;;;;;;11.53;68.06;102556.13;5069219;28;20044;-78
2022/05/08 02:13:21;;;;;;;11.77;6.10;;;;;;;11.50;68.03;102563.09;5071751;28;20107;-78
2022/05/08 02:15:46;;;;;;;10.10;5.30;;;;;;;11.48;67.56;102562.22;5064992;28;20029;-78
2022/05/08 02:18:12;;;;;;;12.43;5.50;;;;;;;11.44;67.41;102566.56;5068392;28;20070;-78
2022/05/08 02:20:39;;;;;;;9.85;5.20;;;;;;;11.40;67.88;102564.84;5066396;28;20020;-78
2022/05/08 02:23:04;;;;;;;12.90;5.13;;;;;;;11.39;67.87;102574.41;5068420;28;20016;-78
2022/05/08 02:25:32;;;;;;;12.32;5.68;;;;;;;11.38;68.44;102572.66;5069537;28;20035;-78
2022/05/08 02:27:58;;;;;;;11.60;5.30;;;;;;;11.38;68.04;102569.19;5071855;28;20078;-78
2022/05/08 02:30:25;;;;;;;10.15;5.45;;;;;;;11.39;67.99;102569.19;5066586;28;20017;-78
2022/05/08 02:32:52;;;;;;;12.80;5.40;;;;;;;11.38;68.32;102569.19;5069461;28;20471;-78
2022/05/08 02:35:22;;;;;;;10.93;5.55;;;;;;;11.35;67.69;102566.59;5068568;28;20383;-78
2022/05/08 02:37:53;;;;;;;10.05;5.13;;;;;;;11.33;67.66;102571.78;5068254;28;20103;-78
2022/05/08 02:40:19;;;;;;;9.43;5.03;;;;;;;11.33;67.47;102574.41;5070292;28;20498;-78
2022/05/08 02:42:45;;;;;;;9.45;5.32;;;;;;;11.27;67.65;102571.81;5073276;28;20193;-78
2022/05/08 02:45:10;;;;;;;11.43;5.35;;;;;;;11.25;67.61;102573.56;5065838;28;20170;-78
2022/05/08 02:47:37;;;;;;;11.90;5.43;;;;;;;11.22;67.72;102576.16;5069541;28;20034;-79
2022/05/08 02:50:04;;;;;;;9.30;5.78;;;;;;;11.18;67.90;102575.31;5063130;28;20066;-78
2022/05/08 02:52:30;;;;;;;10.13;5.53;;;;;;;11.18;68.15;102571.81;5067394;28;20483;-78
2022/05/08 02:54:55;;;;;;;11.20;5.57;;;;;;;11.15;67.32;102577.91;5069292;28;20062;-78
2022/05/08 03:00:05;;;;;;;10.20;5.18;;;;;;;11.11;67.83;102581.38;5068036;28;20407;-78
2022/05/08 03:02:35;;;;;;;11.63;5.45;;;;;;;11.10;67.71;102573.56;5069978;28;20024;-78
2022/05/08 03:05:02;;;;;;;11.70;5.50;;;;;;;11.08;67.98;102584.84;5067437;28;20485;-78
2022/05/08 03:07:27;;;;;;;13.95;5.32;;;;;;;11.08;67.81;102582.25;5067820;28;20036;-78
2022/05/08 03:09:53;;;;;;;10.07;5.15;;;;;;;11.05;67.91;102582.25;5069312;28;20170;-78
2022/05/08 03:12:18;;;;;;;12.15;5.85;;;;;;;11.02;67.62;102577.03;5068562;28;20033;-78
2022/05/08 03:14:43;;;;;;;12.18;5.28;;;;;;;11.00;67.77;102576.16;5069563;28;20028;-78
2022/05/08 03:17:08;;;;;;;12.52;5.60;;;;;;;10.98;67.62;102577.03;5065498;28;20387;-78
2022/05/08 03:19:34;;;;;;;16.40;5.50;;;;;;;10.95;67.36;102577.88;5067485;28;20494;-78
2022/05/08 03:21:59;;;;;;;12.60;5.43;;;;;;;10.89;67.41;102577.91;5067497;28;20077;-78
2022/05/08 03:24:27;;;;;;;11.48;5.78;;;;;;;10.85;67.33;102566.59;5071220;28;20040;-78
2022/05/08 03:26:52;;;;;;;11.35;5.22;;;;;;;10.83;67.60;102572.66;5064996;28;20029;-78
2022/05/08 03:29:17;;;;;;;14.68;5.53;;;;;;;10.82;67.91;102571.81;5067973;28;20108;-78
2022/05/08 03:31:43;;;;;;;11.93;5.57;;;;;;;10.80;67.46;102578.75;5068485;28;20032;-78
2022/05/08 03:34:09;;;;;;;11.70;5.07;;;;;;;10.77;67.82;102574.38;5070072;28;20032;-78
2022/05/08 03:36:34;;;;;;;13.10;4.70;;;;;;;10.75;67.79;102570.06;5067145;28;20432;-78
2022/05/08 03:38:59;;;;;;;9.90;4.57;;;;;;;10.73;67.47;102575.28;5063163;28;20035;-78
2022/05/08 03:41:25;;;;;;;11.40;4.63;;;;;;;10.72;67.33;102576.13;5066392;28;20024;-78
2022/05/08 03:43:51;;;;;;;12.93;5.07;;;;;;;10.70;67.45;102583.06;5068664;28;20028;-78
2022/05/08 03:46:16;;;;;;;12.65;4.63;;;;;;;10.67;67.02;102577.84;5064511;28;20384;-78
2022/05/08 03:48:43;;;;;;;12.50;4.53;;;;;;;10.64;67.16;102577.84;5067454;28;20028;-78
2022/05/08 03:51:08;;;;;;;14.75;5.07;;;;;;;10.62;67.72;102584.78;5066747;28;20028;-78
2022/05/08 03:53:33;;;;;;;11.57;4.55;;;;;;;10.63;67.25;102581.31;5066079;28;20032;-78
2022/05/08 03:55:59;;;;;;;14.43;4.47;;;;;;;10.60;67.24;102581.28;5066250;28;20463;-78
2022/05/08 03:58:24;;;;;;;12.35;4.25;;;;;;;10.58;66.96;102578.69;5068530;28;20145;-78
2022/05/08 04:00:49;;;;;;;12.88;4.35;;;;;;;10.56;67.21;102579.56;5066963;28;20087;-78
2022/05/08 04:03:15;;;;;;;12.60;4.40;;;;;;;10.54;67.14;102581.31;5067315;28;20077;-78
2022/05/08 04:05:40;;;;;;;11.27;4.25;;;;;;;10.51;66.94;102586.50;5068549;28;20036;-78
2022/05/08 04:08:06;;;;;;;15.00;4.20;;;;;;;10.49;66.54;102583.91;5068998;28;20078;-78
2022/05/08 04:10:33;;;;;;;13.10;3.67;;;;;;;10.47;66.58;102596.88;5068295;28;20032;-78
2022/05/08 04:12:58;;;;;;;14.52;3.90;;;;;;;10.42;66.40;102593.38;5070331;28;20020;-78
2022/05/08 04:18:09;;;;;;;14.57;3.95;;;;;;;10.38;66.81;102594.28;5066191;28;20774;-78
2022/05/08 04:20:35;;;;;;;12.38;3.75;;;;;;;10.39;66.76;102600.31;5069831;28;20016;-78
2022/05/08 04:25:43;;;;;;;8.77;3.40;;;;;;;10.37;66.69;102602.91;5076406;28;20035;-78
2022/05/08 04:28:09;;;;;;;10.27;3.80;;;;;;;10.39;66.95;102606.41;5070162;28;20032;-78
2022/05/08 04:30:36;;;;;;;12.80;4.25;;;;;;;10.40;66.82;102602.06;5070393;28;20024;-78
2022/05/08 04:33:01;;;;;;;8.73;3.67;;;;;;;10.40;67.02;102600.34;5068376;28;20364;-77
2022/05/08 04:35:26;;;;;;;11.32;3.20;;;;;;;10.41;66.64;102609.91;5069640;28;20027;-78
2022/05/08 04:37:51;;;;;;;10.02;3.33;;;;;;;10.37;66.66;102602.91;5070972;28;20024;-78
2022/05/08 04:40:17;;;;;;;16.08;3.30;;;;;;;10.34;66.60;102605.50;5068859;28;20028;-78
2022/05/08 04:42:42;;;;;;;13.48;4.10;;;;;;;10.30;66.91;102609.81;5068379;28;20013;-78
2022/05/08 04:45:08;;;;;;;15.63;3.58;;;;;;;10.30;66.65;102614.13;5069649;28;20028;-78
2022/05/08 04:47:33;;;;;;;12.45;4.18;;;;;;;10.27;66.49;102614.13;5069115;28;20032;-78
2022/05/08 04:49:58;;;;;;;10.93;3.20;;;;;;;10.29;66.70;102617.59;5069975;28;20028;-78
2022/05/08 04:52:23;;;;;;;14.68;3.67;;;;;;;10.30;66.80;102614.13;5070500;28;20040;-78
2022/05/08 04:54:49;;;;;;;11.52;3.47;;;;;;;10.31;67.01;102613.28;5069086;28;20028;-78
2022/05/08 04:57:14;;;;;;;13.52;3.28;;;;;;;10.30;66.32;102615.03;5069095;28;20020;-78
2022/05/08 04:59:39;;;;;;;10.75;3.28;;;;;;;10.27;65.96;102619.31;5067888;28;20047;-78
2022/05/08 05:02:05;;;;;;;16.55;3.22;;;;;;;10.27;65.72;102622.81;5078646;28;20409;-79
2022/05/08 05:04:31;;;;;;;13.45;3.35;;;;;;;10.25;65.93;102628.84;5074855;28;20059;-78
2022/05/08 05:06:56;;;;;;;12.93;3.45;;;;;;;10.27;66.13;102629.72;5069404;28;20468;-78
2022/05/08 05:09:21;;;;;;;13.65;2.90;;;;;;;10.30;66.17;102629.75;5064074;28;20468;-78
2022/05/08 05:11:47;;;;;;;16.25;3.65;;;;;;;10.33;66.19;102634.97;5064568;28;20044;-78
2022/05/08 05:14:12;;;;;;;14.30;3.03;;;;;;;10.34;65.62;102636.72;5073358;28;20056;-78
2022/05/08 05:16:38;;;;;;;12.70;3.15;;;;;;;10.35;65.68;102642.75;5071801;28;20107;-78
2022/05/08 05:19:04;;;;;;;14.48;3.08;;;;;;;10.36;65.78;102645.38;5066138;28;20032;-78
2022/05/08 05:21:30;;;;;;;14.45;3.08;;;;;;;10.39;65.67;102644.56;5069748;28;20020;-78
2022/05/08 05:23:55;;;;;;;11.95;3.05;;;;;;;10.42;65.67;102648.03;5069465;28;20036;-78
2022/05/08 05:26:20;;;;;;;12.05;2.70;;;;;;;10.43;65.12;102647.16;5068165;28;20032;-78
2022/05/08 05:28:46;;;;;;;12.90;2.95;;;;;;;10.45;64.97;102649.78;5069135;28;20021;-78
2022/05/08 05:31:12;;;;;;;16.20;3.90;;;;;;;10.43;65.06;102647.16;5069064;28;20492;-78
2022/05/08 05:33:38;;;;;;;13.40;3.30;;;;;;;10.43;64.49;102659.31;5069643;28;20079;-78
2022/05/08 05:36:03;;;;;;;9.00;2.83;;;;;;;10.44;64.26;102654.13;5067075;28;20387;-78
2022/05/08 05:38:28;;;;;;;15.85;3.10;;;;;;;10.45;64.89;102666.25;5066478;28;20469;-78
2022/05/08 05:40:54;;;;;;;11.88;3.40;;;;;;;10.49;65.13;102664.56;5064327;28;20032;-78
2022/05/08 05:43:19;;;;;;;10.77;3.08;;;;;;;10.54;64.61;102672.38;5067595;28;20020;-78
2022/05/08 05:45:44;;;;;;;11.65;2.85;;;;;;;10.57;64.28;102669.81;5071416;28;20050;-78
2022/05/08 05:48:09;;;;;;;15.85;2.83;;;;;;;10.61;64.00;102680.22;5067431;28;20029;-78
2022/05/08 05:50:35;;;;;;;14.95;3.10;;;;;;;10.62;63.39;102681.06;5069437;28;20029;-78
2022/05/08 05:53:00;;;;;;;12.02;2.97;;;;;;;10.60;62.88;102682.81;5069282;28;20029;-78
2022/05/08 05:55:25;;;;;;;12.57;3.05;;;;;;;10.57;63.36;102686.28;5064563;28;20034;-78
2022/05/08 05:57:50;;;;;;;15.68;3.10;;;;;;;10.62;63.89;102681.06;5064996;28;20538;-77
2022/05/08 06:00:18;;;;;;;12.20;3.25;;;;;;;10.66;63.22;102682.84;5061655;28;21842;-78
2022/05/08 06:02:45;;;;;;;13.20;3.03;;;;;;;10.68;63.19;102688.91;5059235;28;20058;-78
2022/05/08 06:05:11;;;;;;;9.15;2.72;;;;;;;10.70;63.71;102692.41;5059856;28;20028;-78
2022/05/08 06:07:38;;;;;;;12.40;2.45;;;;;;;10.75;63.58;102695.00;5061020;28;20470;-79
2022/05/08 06:10:08;;;;;;;11.18;2.70;;;;;;;10.77;61.73;102696.75;5057106;28;20045;-78
2022/05/08 06:12:37;;;;;;;12.40;2.88;;;;;;;10.75;62.03;102702.81;5056646;28;20028;-78
2022/05/08 06:15:03;;;;;;;15.50;2.72;;;;;;;10.73;62.42;102697.63;5062012;28;20026;-78
2022/05/08 06:17:28;;;;;;;10.27;2.83;;;;;;;10.76;62.45;102699.34;5060004;28;20475;-78
2022/05/08 06:19:54;;;;;;;11.18;2.65;;;;;;;10.77;62.86;102704.56;5063266;28;20040;-79
2022/05/08 06:22:19;;;;;;;11.18;3.10;;;;;;;10.81;61.96;102708.06;5062803;28;20039;-78
2022/05/08 06:24:44;;;;;;;11.63;2.78;;;;;;;10.83;61.99;102713.25;5061055;28;20099;-78
2022/05/08 06:27:10;;;;;;;14.10;3.08;;;;;;;10.86;62.28;102708.06;5063691;28;20036;-78
2022/05/08 06:29:35;;;;;;;11.43;2.90;;;;;;;10.90;61.60;102713.28;5065654;28;20028;-78
2022/05/08 06:32:01;;;;;;;10.40;3.00;;;;;;;10.91;61.44;102706.34;5061814;28;20034;-78
2022/05/08 06:34:27;;;;;;;11.50;2.75;;;;;;;10.89;61.26;102716.75;5055112;28;20032;-78
2022/05/08 06:36:52;;;;;;;11.15;2.78;;;;;;;10.89;61.92;102715.91;5063445;28;20540;-78
2022/05/08 06:39:18;;;;;;;14.65;2.80;;;;;;;10.93;62.05;102717.66;5061559;28;20483;-79
2022/05/08 06:41:44;;;;;;;10.48;2.88;;;;;;;10.98;61.65;102718.50;5061483;28;20392;-78
2022/05/08 06:44:09;;;;;;;16.65;3.35;;;;;;;11.01;61.75;102723.75;5061931;28;20036;-78
2022/05/08 06:46:36;;;;;;;12.25;2.92;;;;;;;11.08;61.59;102717.69;5060499;28;21314;-79
2022/05/08 06:49:02;;;;;;;13.25;3.10;;;;;;;11.15;63.09;102721.19;5059663;28;20107;-78
2022/05/08 06:51:28;;;;;;;13.23;2.97;;;;;;;11.22;61.36;102730.72;5056621;28;20048;-78
2022/05/08 06:53:54;;;;;;;10.48;2.83;;;;;;;11.27;61.65;102722.94;5055047;28;20033;-78
2022/05/08 06:56:19;;;;;;;12.27;2.90;;;;;;;11.33;61.38;102719.47;5053858;28;20074;-78
2022/05/08 07:01:34;;;;;;;12.07;3.00;;;;;;;11.38;61.92;102734.25;5059149;28;20098;-78
2022/05/08 07:04:03;;;;;;;15.02;3.47;;;;;;;11.43;60.54;102721.22;5061624;28;20063;-78
2022/05/08 07:06:29;;;;;;;14.95;3.40;;;;;;;11.44;60.91;102735.97;5062940;28;20054;-79
2022/05/08 07:08:54;;;;;;;13.65;3.30;;;;;;;11.48;61.67;102735.13;5061325;28;20055;-78
2022/05/08 07:11:19;;;;;;;14.35;3.25;;;;;;;11.53;60.15;102737.72;5058903;28;20503;-79
2022/05/08 07:13:45;;;;;;;14.02;3.13;;;;;;;11.56;59.95;102729.91;5059511;28;20714;-79
2022/05/08 07:16:10;;;;;;;13.95;3.17;;;;;;;11.62;61.31;102737.72;5062640;28;20110;-78
2022/05/08 07:18:35;;;;;;;12.15;2.90;;;;;;;11.71;61.18;102736.00;5061196;28;20403;-79
2022/05/08 07:21:00;;;;;;;17.13;3.30;;;;;;;11.75;60.78;102740.34;5058948;28;20037;-78
2022/05/08 07:23:26;;;;;;;13.82;2.97;;;;;;;11.79;59.73;102742.06;5056324;28;20052;-78
2022/05/08 07:25:51;;;;;;;15.48;3.28;;;;;;;11.79;59.69;102742.06;5062273;28;20036;-78
2022/05/08 07:28:16;;;;;;;16.90;3.17;;;;;;;11.85;61.04;102739.47;5060696;28;20032;-79
2022/05/08 07:30:42;;;;;;;11.00;2.55;;;;;;;11.86;58.95;102737.75;5055286;28;20040;-79
2022/05/08 07:33:07;;;;;;;13.23;2.75;;;;;;;11.89;60.29;102735.09;5057598;28;20499;-79
2022/05/08 07:38:21;;;;;;;14.80;2.95;;;;;;;11.93;59.86;102748.16;5058706;28;20534;-79
2022/05/08 07:40:48;;;;;;;16.15;2.88;;;;;;;11.89;59.80;102746.44;5055672;28;20050;-79
2022/05/08 07:43:13;;;;;;;13.57;3.10;;;;;;;11.87;60.07;102745.56;5053251;28;20028;-79
2022/05/08 07:45:38;;;;;;;12.82;3.00;;;;;;;11.84;59.57;102751.66;5060308;28;20414;-79
2022/05/08 07:48:04;;;;;;;14.27;3.30;;;;;;;11.82;59.05;102750.78;5059814;28;20047;-78
2022/05/08 07:50:30;;;;;;;12.88;3.00;;;;;;;11.82;59.82;102742.06;5056531;28;20395;-79
2022/05/08 07:52:55;;;;;;;12.23;2.85;;;;;;;11.81;60.06;102751.66;5056205;28;20547;-79
2022/05/08 07:55:20;;;;;;;13.73;3.50;;;;;;;11.77;58.41;102751.66;5060566;28;20047;-78
2022/05/08 07:57:46;;;;;;;12.13;2.75;;;;;;;11.73;58.29;102752.50;5061088;28;20634;-78
2022/05/08 08:00:11;;;;;;;10.10;3.03;;;;;;;11.72;58.08;102753.38;5058282;28;20043;-79
2022/05/08 08:02:36;;;;;;;12.70;2.80;;;;;;;11.70;57.96;102758.56;5059837;28;20476;-79
2022/05/08 08:05:02;;;;;;;9.57;2.75;;;;;;;11.69;58.43;102762.09;5060098;28;20084;-79
2022/05/08 08:07:28;;;;;;;12.75;3.63;;;;;;;11.69;58.91;102752.50;5061642;28;20039;-79
2022/05/08 08:09:53;;;;;;;13.75;3.20;;;;;;;11.72;59.30;102759.44;5058797;28;20462;-78
2022/05/08 08:12:19;;;;;;;12.93;3.60;;;;;;;11.76;60.69;102749.91;5057352;28;20040;-78
2022/05/08 08:14:44;;;;;;;12.05;3.10;;;;;;;11.79;59.69;102750.78;5054648;28;20060;-79
2022/05/08 08:17:10;;;;;;;10.68;2.88;;;;;;;11.79;59.95;102748.16;5055683;28;20028;-78
2022/05/08 08:19:35;;;;;;;12.05;3.58;;;;;;;11.80;60.21;102764.66;5058688;28;20090;-79
2022/05/08 08:22:00;;;;;;;10.57;3.00;;;;;;;11.80;59.44;102759.44;5059298;28;20484;-79
2022/05/08 08:24:26;;;;;;;12.60;3.30;;;;;;;11.81;59.00;102769.00;5059578;28;20028;-79
2022/05/08 08:26:51;;;;;;;10.90;3.20;;;;;;;11.83;58.28;102762.94;5060875;28;20033;-79
2022/05/08 08:29:16;;;;;;;12.93;3.40;;;;;;;11.88;58.95;102765.56;5055788;28;20470;-78
2022/05/08 08:31:42;;;;;;;10.88;3.22;;;;;;;11.90;59.56;102758.59;5056232;28;20496;-79
2022/05/08 08:34:07;;;;;;;8.80;2.60;;;;;;;11.96;59.50;102763.78;5055263;28;20039;-79
2022/05/08 08:36:32;;;;;;;13.23;2.95;;;;;;;12.03;57.76;102763.84;5052927;28;20042;-78
2022/05/08 08:38:57;;;;;;;12.10;2.80;;;;;;;12.07;58.31;102760.34;5056752;28;20503;-79
2022/05/08 08:41:27;;;;;;;10.82;3.10;;;;;;;12.15;59.39;102766.41;5058234;28;20041;-77
2022/05/08 08:49:25;;;;;;;12.05;2.92;;;;;;;12.41;57.75;102765.53;5055282;28;20128;-77
2022/05/08 08:51:51;;;;;;;11.25;2.67;;;;;;;12.47;58.73;102765.47;5050366;28;20028;-77
2022/05/08 08:54:21;;;;;;;14.25;3.25;;;;;;;12.50;57.26;102765.47;5051708;28;20060;-76
2022/05/08 08:56:48;;;;;;;11.23;2.90;;;;;;;12.55;56.93;102763.72;5058758;28;20032;-77
2022/05/08 08:59:13;;;;;;;12.20;2.90;;;;;;;12.59;57.26;102757.63;5059855;28;20051;-77
2022/05/08 09:01:41;;;;;;;9.57;3.08;;;;;;;12.63;54.36;102762.84;5062955;28;20115;-77
2022/05/08 09:04:09;;;;;;;7.07;2.35;;;;;;;12.67;57.55;102752.38;5064875;28;20025;-77
2022/05/08 09:06:42;;;;;;;13.40;2.90;;;;;;;12.72;56.42;102755.81;5056187;28;20730;-77
2022/05/08 09:09:27;;;;;;;11.68;2.92;;;;;;;12.79;56.40;102755.81;5054488;28;20039;-77
2022/05/08 09:11:54;;;;;;;12.48;2.70;;;;;;;12.86;56.56;102753.16;5059708;28;20047;-77
2022/05/08 09:14:33;;;;;;;10.30;2.40;;;;;;;12.95;55.08;102764.47;5058281;28;20094;-77
2022/05/08 09:16:59;;;;;;;9.32;2.72;;;;;;;12.99;55.25;102758.31;5060126;28;20028;-78
2022/05/08 09:19:37;;;;;;;8.40;2.38;;;;;;;13.01;54.73;102759.19;5059773;28;20032;-78
2022/05/08 09:22:04;;;;;;;9.55;2.63;;;;;;;13.04;56.41;102759.19;5055266;28;20037;-77
2022/05/08 09:24:30;;;;;;;10.82;2.50;;;;;;;13.11;57.20;102760.91;5055248;28;20488;-78
2022/05/08 09:27:09;;;;;;;6.93;2.65;;;;;;;13.21;57.00;102764.31;5054555;28;20163;-78
2022/05/08 09:29:34;;;;;;;10.82;2.92;;;;;;;13.26;55.45;102761.69;5054411;28;20043;-78
2022/05/08 09:31:59;;;;;;;8.40;2.50;;;;;;;13.29;54.88;102752.06;5054151;28;20098;-78
2022/05/08 09:34:24;;;;;;;7.95;2.42;;;;;;;13.33;54.20;102755.50;5058590;28;20440;-78
2022/05/08 09:37:05;;;;;;;12.40;3.10;;;;;;;13.40;55.60;102754.63;5056643;28;20124;-78
2022/05/08 09:39:30;;;;;;;10.50;2.97;;;;;;;13.43;54.21;102759.84;5060113;28;20032;-78
2022/05/08 09:41:55;;;;;;;10.63;3.28;;;;;;;13.39;51.40;102750.25;5062563;28;20031;-77
2022/05/08 09:44:20;;;;;;;9.40;2.58;;;;;;;13.39;53.72;102758.09;5060976;28;20074;-77
2022/05/08 09:46:48;;;;;;;7.45;2.80;;;;;;;13.43;53.43;102752.00;5065263;28;20032;-77
2022/05/08 09:49:23;;;;;;;9.38;2.60;;;;;;;13.47;53.84;102748.50;5066522;28;20029;-78
2022/05/08 09:51:50;;;;;;;11.27;3.00;;;;;;;13.49;52.79;102749.34;5064234;28;20120;-78
2022/05/08 09:54:17;;;;;;;11.52;2.78;;;;;;;13.51;51.45;102758.03;5063086;28;20387;-78
2022/05/08 09:56:44;;;;;;;10.10;3.45;;;;;;;13.54;53.05;102746.72;5063038;28;20488;-78
2022/05/08 09:59:13;;;;;;;9.77;2.47;;;;;;;13.58;52.07;102748.38;5062980;28;20605;-78
2022/05/08 10:01:40;;;;;;;11.48;3.10;;;;;;;13.60;51.49;102751.00;5062880;28;20491;-77
2022/05/08 10:04:06;;;;;;;9.45;2.78;;;;;;;13.60;52.95;102748.41;5060710;28;20395;-77
2022/05/08 10:06:35;;;;;;;8.90;2.80;;;;;;;13.62;52.66;102754.50;5062689;28;20024;-78
2022/05/08 10:14:33;;;;;;;8.98;2.50;;;;;;;13.77;50.77;102743.91;5063564;28;20493;-78
2022/05/08 10:17:04;;;;;;;9.95;2.15;;;;;;;13.81;52.22;102731.66;5060925;28;20033;-78
2022/05/08 10:19:29;;;;;;;8.55;2.30;;;;;;;13.87;52.47;102736.84;5063832;28;20040;-78
2022/05/08 10:21:59;;;;;;;8.57;2.30;;;;;;;13.88;50.59;102735.97;5063494;28;20957;-78
2022/05/08 10:24:48;;;;;;;8.60;2.63;;;;;;;13.91;53.70;102735.94;5064567;28;20398;-78
2022/05/08 10:27:30;;;;;;;7.95;2.38;;;;;;;13.95;52.52;102739.38;5064334;28;20033;-78
2022/05/08 10:29:55;;;;;;;9.18;2.20;;;;;;;13.98;50.86;102730.63;5063881;28;20040;-78
2022/05/08 10:32:33;;;;;;;7.60;2.28;;;;;;;14.02;52.09;102729.72;5057611;28;20275;-78
2022/05/08 10:35:09;;;;;;;9.82;2.40;;;;;;;14.03;51.90;102727.06;5064164;28;20033;-78
2022/05/08 10:37:36;;;;;;;7.30;2.47;;;;;;;14.06;53.24;102724.44;5056967;28;20064;-78
2022/05/08 10:40:02;;;;;;;6.93;2.42;;;;;;;14.11;52.28;102722.66;5062171;28;20063;-78
2022/05/08 10:42:37;;;;;;;7.05;2.28;;;;;;;14.18;52.68;102733.03;5055488;28;20258;-78
2022/05/08 10:45:02;;;;;;;7.05;2.40;;;;;;;14.22;51.40;102724.28;5060670;28;20071;-78
2022/05/08 10:47:34;;;;;;;11.18;2.80;;;;;;;14.24;51.79;102722.50;5061843;28;20074;-78
2022/05/08 10:50:01;;;;;;;8.75;2.90;;;;;;;14.27;50.38;102712.84;5067283;28;20043;-78
2022/05/08 10:52:26;;;;;;;7.97;2.17;;;;;;;14.30;51.12;102717.22;5066933;28;20441;-78
2022/05/08 10:54:58;;;;;;;9.55;2.58;;;;;;;14.34;50.43;102711.06;5064251;28;20612;-78
2022/05/08 10:57:30;;;;;;;9.52;2.88;;;;;;;14.37;50.01;102716.25;5055222;28;20048;-78
2022/05/08 10:59:56;;;;;;;5.72;2.30;;;;;;;14.40;49.59;102712.75;5056172;28;20032;-77
2022/05/08 11:02:47;;;;;;;8.32;2.25;;;;;;;14.45;50.74;102715.28;5059311;28;20043;-78
2022/05/08 11:05:16;;;;;;;7.75;2.25;;;;;;;14.51;49.06;102710.00;5061830;28;20039;-78
2022/05/08 11:07:52;;;;;;;6.82;2.08;;;;;;;14.54;49.79;102712.56;5062158;28;20085;-78
2022/05/08 11:10:26;;;;;;;9.57;2.40;;;;;;;14.60;50.48;102720.34;5061593;28;20202;-78
2022/05/08 11:12:55;;;;;;;7.63;2.50;;;;;;;14.63;48.41;102709.84;5061400;28;20115;-78
2022/05/08 11:15:20;;;;;;;5.28;2.03;;;;;;;14.64;49.61;102705.44;5062233;28;20038;-78
2022/05/08 11:17:46;;;;;;;5.78;2.30;;;;;;;14.66;50.81;102708.91;5064482;28;20040;-78
2022/05/08 11:20:15;;;;;;;9.27;2.58;;;;;;;14.68;50.76;102704.56;5065477;28;20028;-78
2022/05/08 11:22:56;;;;;;;6.13;2.45;;;;;;;14.71;50.56;102713.25;5063214;28;20025;-78
2022/05/08 11:25:21;;;;;;;9.35;3.22;;;;;;;14.76;49.77;102712.31;5064150;28;20051;-78
2022/05/08 11:27:51;;;;;;;9.50;2.60;;;;;;;14.79;51.15;102714.91;5066000;28;20028;-78
2022/05/08 11:30:38;;;;;;;8.30;2.42;;;;;;;14.82;49.92;102710.47;5065424;28;20040;-78
2022/05/08 11:36:06;;;;;;;8.85;2.35;;;;;;;14.86;47.64;102706.06;5068262;28;20046;-78
2022/05/08 11:38:48;;;;;;;6.45;1.85;;;;;;;14.91;48.55;102698.16;5065163;28;20046;-78
2022/05/08 11:41:26;;;;;;;6.22;2.30;;;;;;;14.93;49.09;102696.38;5062543;28;20050;-77
2022/05/08 11:43:53;;;;;;;6.25;2.50;;;;;;;14.95;46.98;102695.47;5065893;28;20357;-78
2022/05/08 11:46:55;;;;;;;6.90;2.35;;;;;;;14.99;49.02;102686.66;5062590;28;20032;-78